sensor_id;sensor_type;location;lat;lon;timestamp;P1;durP1;ratioP1;P2;durP2;ratioP2
17741;SDS011;8993;51.822;-2.268;2024-01-15T00:02:10;3.31;;;0.75;;
17741;SDS011;8993;51.822;-2.268;2024-01-15T00:07:15;2.11;;;0.72;;
17741;SDS011;8993;51.822;-2.268;2024-01-15T00:12:19;2.30;;;0.76;;
17741;SDS011;8993;51.822;-2.268;2024-01-15T00:17:24;2.59;;;0.75;;
17741;SDS011;8993;51.822;-2.268;2024-01-15T00:22:28;2.24;;;0.72;;
17741;SDS011;8993;51.822;-2.268;2024-01-15T00:27:33;2.76;;;0.72;;
17741;SDS011;8993;51.822;-2.268;2024-01-15T00:32:36;2.68;;;0.77;;
17741;SDS011;8993;51.822;-2.268;2024-01-15T00:37:40;2.65;;;0.76;;
17741;SDS011;8993;51.822;-2.268;2024-01-15T00:42:44;3.34;;;0.95;;
17741;SDS011;8993;51.822;-2.268;2024-01-15T00:47:48;4.56;;;1.29;;
17741;SDS011;8993;51.822;-2.268;2024-01-15T00:52:51;5.88;;;1.55;;
17741;SDS011;8993;51.822;-2.268;2024-01-15T00:57:56;5.84;;;1.32;;
17741;SDS011;8993;51.822;-2.268;2024-01-15T01:03:00;4.03;;;1.55;;
17741;SDS011;8993;51.822;-2.268;2024-01-15T01:08:04;7.11;;;1.31;;
17741;SDS011;8993;51.822;-2.268;2024-01-15T01:13:07;4.49;;;1.20;;
17741;SDS011;8993;51.822;-2.268;2024-01-15T01:18:11;4.26;;;1.09;;
17741;SDS011;8993;51.822;-2.268;2024-01-15T01:23:15;6.06;;;1.21;;
17741;SDS011;8993;51.822;-2.268;2024-01-15T01:28:20;4.83;;;1.15;;
17741;SDS011;8993;51.822;-2.268;2024-01-15T01:33:23;4.06;;;0.97;;
17741;SDS011;8993;51.822;-2.268;2024-01-15T01:38:27;3.78;;;1.09;;
17741;SDS011;8993;51.822;-2.268;2024-01-15T01:43:31;4.63;;;1.00;;
17741;SDS011;8993;51.822;-2.268;2024-01-15T01:48:35;4.04;;;0.92;;
17741;SDS011;8993;51.822;-2.268;2024-01-15T01:53:40;5.95;;;1.10;;
17741;SDS011;8993;51.822;-2.268;2024-01-15T01:58:44;4.03;;;0.87;;
17741;SDS011;8993;51.822;-2.268;2024-01-15T02:03:48;2.31;;;0.73;;
17741;SDS011;8993;51.822;-2.268;2024-01-15T02:08:52;2.80;;;0.69;;
17741;SDS011;8993;51.822;-2.268;2024-01-15T02:13:56;3.59;;;0.82;;
17741;SDS011;8993;51.822;-2.268;2024-01-15T02:19:00;3.86;;;0.96;;
17741;SDS011;8993;51.822;-2.268;2024-01-15T02:24:04;4.98;;;0.98;;
17741;SDS011;8993;51.822;-2.268;2024-01-15T02:29:08;6.12;;;1.29;;
17741;SDS011;8993;51.822;-2.268;2024-01-15T02:34:12;3.99;;;0.96;;
17741;SDS011;8993;51.822;-2.268;2024-01-15T02:39:16;2.37;;;0.87;;
17741;SDS011;8993;51.822;-2.268;2024-01-15T02:44:20;3.43;;;0.89;;
17741;SDS011;8993;51.822;-2.268;2024-01-15T02:49:24;3.62;;;0.92;;
17741;SDS011;8993;51.822;-2.268;2024-01-15T02:54:28;4.73;;;0.79;;
17741;SDS011;8993;51.822;-2.268;2024-01-15T02:59:31;3.68;;;0.83;;
17741;SDS011;8993;51.822;-2.268;2024-01-15T03:04:35;3.33;;;0.74;;
17741;SDS011;8993;51.822;-2.268;2024-01-15T03:09:40;3.83;;;0.74;;
17741;SDS011;8993;51.822;-2.268;2024-01-15T03:14:44;3.81;;;0.90;;
17741;SDS011;8993;51.822;-2.268;2024-01-15T03:19:48;2.53;;;0.68;;
17741;SDS011;8993;51.822;-2.268;2024-01-15T03:24:52;2.66;;;0.63;;
17741;SDS011;8993;51.822;-2.268;2024-01-15T03:29:57;3.33;;;0.57;;
17741;SDS011;8993;51.822;-2.268;2024-01-15T03:35:00;3.35;;;0.66;;
17741;SDS011;8993;51.822;-2.268;2024-01-15T03:40:05;3.57;;;0.55;;
17741;SDS011;8993;51.822;-2.268;2024-01-15T03:45:09;3.63;;;0.58;;
17741;SDS011;8993;51.822;-2.268;2024-01-15T03:50:13;3.03;;;0.51;;
17741;SDS011;8993;51.822;-2.268;2024-01-15T03:55:17;3.16;;;0.62;;
17741;SDS011;8993;51.822;-2.268;2024-01-15T04:00:22;3.82;;;0.48;;
17741;SDS011;8993;51.822;-2.268;2024-01-15T04:05:25;3.63;;;0.57;;
17741;SDS011;8993;51.822;-2.268;2024-01-15T04:10:30;3.21;;;0.50;;
17741;SDS011;8993;51.822;-2.268;2024-01-15T04:15:34;3.45;;;0.40;;
17741;SDS011;8993;51.822;-2.268;2024-01-15T04:20:38;2.54;;;0.46;;
17741;SDS011;8993;51.822;-2.268;2024-01-15T04:25:42;3.57;;;0.52;;
17741;SDS011;8993;51.822;-2.268;2024-01-15T04:30:47;2.75;;;0.45;;
17741;SDS011;8993;51.822;-2.268;2024-01-15T04:35:50;2.74;;;0.32;;
17741;SDS011;8993;51.822;-2.268;2024-01-15T04:40:54;2.99;;;0.41;;
17741;SDS011;8993;51.822;-2.268;2024-01-15T04:45:58;3.58;;;0.44;;
17741;SDS011;8993;51.822;-2.268;2024-01-15T04:51:03;2.36;;;0.39;;
17741;SDS011;8993;51.822;-2.268;2024-01-15T04:56:06;2.14;;;0.39;;
17741;SDS011;8993;51.822;-2.268;2024-01-15T05:01:10;3.03;;;0.38;;
17741;SDS011;8993;51.822;-2.268;2024-01-15T05:06:14;3.32;;;0.45;;
17741;SDS011;8993;51.822;-2.268;2024-01-15T05:11:19;3.57;;;0.54;;
17741;SDS011;8993;51.822;-2.268;2024-01-15T05:16:23;2.26;;;0.57;;
17741;SDS011;8993;51.822;-2.268;2024-01-15T05:21:27;3.28;;;0.52;;
17741;SDS011;8993;51.822;-2.268;2024-01-15T05:26:31;2.88;;;0.51;;
17741;SDS011;8993;51.822;-2.268;2024-01-15T05:31:35;3.35;;;0.64;;
17741;SDS011;8993;51.822;-2.268;2024-01-15T05:36:39;3.55;;;0.65;;
17741;SDS011;8993;51.822;-2.268;2024-01-15T05:41:43;2.43;;;0.86;;
17741;SDS011;8993;51.822;-2.268;2024-01-15T05:46:47;1.43;;;0.40;;
17741;SDS011;8993;51.822;-2.268;2024-01-15T05:51:51;2.87;;;0.45;;
17741;SDS011;8993;51.822;-2.268;2024-01-15T05:56:55;1.86;;;0.80;;
17741;SDS011;8993;51.822;-2.268;2024-01-15T06:01:59;2.97;;;1.22;;
17741;SDS011;8993;51.822;-2.268;2024-01-15T06:07:04;7.03;;;0.66;;
17741;SDS011;8993;51.822;-2.268;2024-01-15T06:12:08;3.39;;;0.74;;
17741;SDS011;8993;51.822;-2.268;2024-01-15T06:17:12;4.05;;;0.53;;
17741;SDS011;8993;51.822;-2.268;2024-01-15T06:22:16;2.29;;;0.45;;
17741;SDS011;8993;51.822;-2.268;2024-01-15T06:27:20;1.78;;;0.55;;
17741;SDS011;8993;51.822;-2.268;2024-01-15T06:32:24;5.13;;;0.71;;
17741;SDS011;8993;51.822;-2.268;2024-01-15T06:37:28;3.42;;;0.61;;
17741;SDS011;8993;51.822;-2.268;2024-01-15T06:42:33;4.29;;;0.66;;
17741;SDS011;8993;51.822;-2.268;2024-01-15T06:47:36;4.11;;;1.03;;
17741;SDS011;8993;51.822;-2.268;2024-01-15T06:52:40;5.95;;;1.01;;
17741;SDS011;8993;51.822;-2.268;2024-01-15T06:57:44;4.06;;;0.83;;
17741;SDS011;8993;51.822;-2.268;2024-01-15T07:02:48;6.58;;;2.06;;
17741;SDS011;8993;51.822;-2.268;2024-01-15T07:07:53;2.88;;;0.84;;
17741;SDS011;8993;51.822;-2.268;2024-01-15T07:12:57;2.96;;;0.98;;
17741;SDS011;8993;51.822;-2.268;2024-01-15T07:18:01;4.52;;;0.79;;
17741;SDS011;8993;51.822;-2.268;2024-01-15T07:23:05;2.72;;;0.77;;
17741;SDS011;8993;51.822;-2.268;2024-01-15T07:28:09;4.53;;;0.71;;
17741;SDS011;8993;51.822;-2.268;2024-01-15T07:33:13;4.59;;;0.81;;
17741;SDS011;8993;51.822;-2.268;2024-01-15T07:38:17;3.16;;;0.55;;
17741;SDS011;8993;51.822;-2.268;2024-01-15T07:43:22;3.16;;;0.75;;
17741;SDS011;8993;51.822;-2.268;2024-01-15T07:48:26;3.62;;;0.86;;
17741;SDS011;8993;51.822;-2.268;2024-01-15T07:53:30;4.08;;;0.73;;
17741;SDS011;8993;51.822;-2.268;2024-01-15T07:58:34;4.62;;;0.95;;
17741;SDS011;8993;51.822;-2.268;2024-01-15T08:03:38;4.75;;;0.73;;
17741;SDS011;8993;51.822;-2.268;2024-01-15T08:08:43;3.14;;;0.77;;
17741;SDS011;8993;51.822;-2.268;2024-01-15T08:13:47;4.47;;;0.82;;
17741;SDS011;8993;51.822;-2.268;2024-01-15T08:18:51;2.73;;;0.75;;
17741;SDS011;8993;51.822;-2.268;2024-01-15T08:23:56;2.88;;;0.77;;
17741;SDS011;8993;51.822;-2.268;2024-01-15T08:29:00;6.58;;;1.12;;
17741;SDS011;8993;51.822;-2.268;2024-01-15T08:34:04;6.44;;;1.08;;
17741;SDS011;8993;51.822;-2.268;2024-01-15T08:39:08;3.44;;;0.95;;
17741;SDS011;8993;51.822;-2.268;2024-01-15T08:44:12;4.97;;;0.97;;
17741;SDS011;8993;51.822;-2.268;2024-01-15T08:49:16;6.28;;;1.05;;
17741;SDS011;8993;51.822;-2.268;2024-01-15T08:54:20;5.66;;;0.89;;
17741;SDS011;8993;51.822;-2.268;2024-01-15T08:59:24;5.06;;;0.82;;
17741;SDS011;8993;51.822;-2.268;2024-01-15T09:04:28;5.62;;;0.90;;
17741;SDS011;8993;51.822;-2.268;2024-01-15T09:09:32;5.33;;;0.67;;
17741;SDS011;8993;51.822;-2.268;2024-01-15T09:14:37;4.35;;;0.84;;
17741;SDS011;8993;51.822;-2.268;2024-01-15T09:19:41;6.53;;;0.89;;
17741;SDS011;8993;51.822;-2.268;2024-01-15T09:24:45;7.37;;;0.90;;
17741;SDS011;8993;51.822;-2.268;2024-01-15T09:29:49;4.01;;;0.68;;
17741;SDS011;8993;51.822;-2.268;2024-01-15T09:34:53;5.58;;;0.76;;
17741;SDS011;8993;51.822;-2.268;2024-01-15T09:39:57;4.78;;;0.53;;
17741;SDS011;8993;51.822;-2.268;2024-01-15T09:45:01;2.53;;;0.48;;
17741;SDS011;8993;51.822;-2.268;2024-01-15T09:50:06;6.62;;;0.94;;
17741;SDS011;8993;51.822;-2.268;2024-01-15T09:55:10;4.33;;;0.70;;
17741;SDS011;8993;51.822;-2.268;2024-01-15T10:00:14;5.56;;;0.67;;
17741;SDS011;8993;51.822;-2.268;2024-01-15T10:05:18;6.60;;;0.98;;
17741;SDS011;8993;51.822;-2.268;2024-01-15T10:10:22;28.40;;;6.82;;
17741;SDS011;8993;51.822;-2.268;2024-01-15T10:15:26;34.92;;;8.56;;
17741;SDS011;8993;51.822;-2.268;2024-01-15T10:20:31;26.81;;;6.01;;
17741;SDS011;8993;51.822;-2.268;2024-01-15T10:25:35;15.48;;;3.55;;
17741;SDS011;8993;51.822;-2.268;2024-01-15T10:30:39;10.67;;;1.43;;
17741;SDS011;8993;51.822;-2.268;2024-01-15T10:35:43;4.46;;;0.81;;
17741;SDS011;8993;51.822;-2.268;2024-01-15T10:40:47;3.93;;;0.61;;
17741;SDS011;8993;51.822;-2.268;2024-01-15T10:45:51;3.18;;;0.71;;
17741;SDS011;8993;51.822;-2.268;2024-01-15T10:50:55;6.11;;;0.71;;
17741;SDS011;8993;51.822;-2.268;2024-01-15T10:56:00;4.09;;;0.57;;
17741;SDS011;8993;51.822;-2.268;2024-01-15T11:01:04;5.22;;;0.65;;
17741;SDS011;8993;51.822;-2.268;2024-01-15T11:06:15;4.53;;;0.57;;
17741;SDS011;8993;51.822;-2.268;2024-01-15T11:11:13;3.07;;;0.47;;
17741;SDS011;8993;51.822;-2.268;2024-01-15T11:16:17;3.02;;;0.48;;
17741;SDS011;8993;51.822;-2.268;2024-01-15T11:21:23;3.93;;;0.58;;
17741;SDS011;8993;51.822;-2.268;2024-01-15T11:26:28;3.72;;;0.61;;
17741;SDS011;8993;51.822;-2.268;2024-01-15T11:31:56;3.03;;;0.51;;
17741;SDS011;8993;51.822;-2.268;2024-01-15T11:41:39;3.77;;;0.42;;
17741;SDS011;8993;51.822;-2.268;2024-01-15T11:46:43;2.84;;;0.50;;
17741;SDS011;8993;51.822;-2.268;2024-01-15T11:51:48;2.88;;;0.40;;
17741;SDS011;8993;51.822;-2.268;2024-01-15T11:56:52;3.27;;;0.47;;
17741;SDS011;8993;51.822;-2.268;2024-01-15T12:01:56;3.96;;;0.48;;
17741;SDS011;8993;51.822;-2.268;2024-01-15T12:07:01;3.06;;;0.45;;
17741;SDS011;8993;51.822;-2.268;2024-01-15T12:12:07;3.24;;;0.33;;
17741;SDS011;8993;51.822;-2.268;2024-01-15T12:17:09;3.50;;;0.42;;
17741;SDS011;8993;51.822;-2.268;2024-01-15T12:22:14;3.66;;;0.43;;
17741;SDS011;8993;51.822;-2.268;2024-01-15T12:27:19;3.33;;;0.45;;
17741;SDS011;8993;51.822;-2.268;2024-01-15T12:32:23;3.58;;;0.39;;
17741;SDS011;8993;51.822;-2.268;2024-01-15T12:37:27;3.03;;;0.41;;
17741;SDS011;8993;51.822;-2.268;2024-01-15T12:42:35;3.96;;;0.54;;
17741;SDS011;8993;51.822;-2.268;2024-01-15T12:47:39;2.63;;;0.53;;
17741;SDS011;8993;51.822;-2.268;2024-01-15T12:52:43;2.68;;;0.53;;
17741;SDS011;8993;51.822;-2.268;2024-01-15T12:57:50;4.43;;;0.67;;
17741;SDS011;8993;51.822;-2.268;2024-01-15T13:02:52;2.88;;;0.47;;
17741;SDS011;8993;51.822;-2.268;2024-01-15T13:07:58;4.04;;;0.60;;
17741;SDS011;8993;51.822;-2.268;2024-01-15T13:13:01;6.98;;;0.56;;
17741;SDS011;8993;51.822;-2.268;2024-01-15T13:18:05;3.58;;;0.53;;
17741;SDS011;8993;51.822;-2.268;2024-01-15T13:23:09;4.42;;;0.60;;
17741;SDS011;8993;51.822;-2.268;2024-01-15T13:28:14;4.64;;;0.57;;
17741;SDS011;8993;51.822;-2.268;2024-01-15T13:33:17;3.38;;;0.62;;
17741;SDS011;8993;51.822;-2.268;2024-01-15T13:38:21;3.07;;;0.51;;
17741;SDS011;8993;51.822;-2.268;2024-01-15T13:43:25;4.55;;;0.60;;
17741;SDS011;8993;51.822;-2.268;2024-01-15T13:48:30;4.07;;;0.54;;
17741;SDS011;8993;51.822;-2.268;2024-01-15T13:53:34;3.51;;;0.46;;
17741;SDS011;8993;51.822;-2.268;2024-01-15T13:58:38;3.78;;;0.54;;
17741;SDS011;8993;51.822;-2.268;2024-01-15T14:03:42;4.23;;;0.60;;
17741;SDS011;8993;51.822;-2.268;2024-01-15T14:08:46;3.84;;;0.70;;
17741;SDS011;8993;51.822;-2.268;2024-01-15T14:13:50;5.82;;;0.73;;
17741;SDS011;8993;51.822;-2.268;2024-01-15T14:18:54;4.56;;;0.80;;
17741;SDS011;8993;51.822;-2.268;2024-01-15T14:23:58;4.10;;;0.84;;
17741;SDS011;8993;51.822;-2.268;2024-01-15T14:29:03;6.10;;;0.88;;
17741;SDS011;8993;51.822;-2.268;2024-01-15T14:34:07;5.38;;;0.90;;
17741;SDS011;8993;51.822;-2.268;2024-01-15T14:39:11;5.48;;;0.85;;
17741;SDS011;8993;51.822;-2.268;2024-01-15T14:44:15;6.90;;;1.19;;
17741;SDS011;8993;51.822;-2.268;2024-01-15T14:49:19;7.65;;;1.27;;
17741;SDS011;8993;51.822;-2.268;2024-01-15T14:54:23;5.61;;;1.05;;
17741;SDS011;8993;51.822;-2.268;2024-01-15T14:59:27;4.13;;;0.80;;
17741;SDS011;8993;51.822;-2.268;2024-01-15T15:04:31;6.39;;;0.90;;
17741;SDS011;8993;51.822;-2.268;2024-01-15T15:09:35;5.53;;;0.90;;
17741;SDS011;8993;51.822;-2.268;2024-01-15T15:14:39;4.90;;;0.96;;
17741;SDS011;8993;51.822;-2.268;2024-01-15T15:19:43;5.97;;;0.84;;
17741;SDS011;8993;51.822;-2.268;2024-01-15T15:24:47;5.50;;;1.22;;
17741;SDS011;8993;51.822;-2.268;2024-01-15T15:29:51;7.34;;;1.14;;
17741;SDS011;8993;51.822;-2.268;2024-01-15T15:34:55;8.54;;;1.22;;
17741;SDS011;8993;51.822;-2.268;2024-01-15T15:39:59;5.16;;;1.11;;
17741;SDS011;8993;51.822;-2.268;2024-01-15T15:45:04;5.45;;;0.86;;
17741;SDS011;8993;51.822;-2.268;2024-01-15T15:50:07;6.29;;;1.04;;
17741;SDS011;8993;51.822;-2.268;2024-01-15T15:55:11;5.06;;;0.89;;
17741;SDS011;8993;51.822;-2.268;2024-01-15T16:00:15;5.33;;;1.05;;
17741;SDS011;8993;51.822;-2.268;2024-01-15T16:05:19;4.67;;;0.87;;
17741;SDS011;8993;51.822;-2.268;2024-01-15T16:10:24;5.17;;;0.92;;
17741;SDS011;8993;51.822;-2.268;2024-01-15T16:15:28;4.21;;;0.90;;
17741;SDS011;8993;51.822;-2.268;2024-01-15T16:20:32;5.30;;;0.93;;
17741;SDS011;8993;51.822;-2.268;2024-01-15T16:25:36;5.13;;;0.89;;
17741;SDS011;8993;51.822;-2.268;2024-01-15T16:30:40;6.07;;;1.15;;
17741;SDS011;8993;51.822;-2.268;2024-01-15T16:35:45;6.73;;;1.76;;
17741;SDS011;8993;51.822;-2.268;2024-01-15T16:40:54;5.12;;;1.25;;
17741;SDS011;8993;51.822;-2.268;2024-01-15T16:45:58;7.22;;;1.44;;
17741;SDS011;8993;51.822;-2.268;2024-01-15T16:51:02;5.00;;;1.32;;
17741;SDS011;8993;51.822;-2.268;2024-01-15T16:56:06;8.65;;;1.67;;
17741;SDS011;8993;51.822;-2.268;2024-01-15T17:01:10;6.08;;;1.35;;
17741;SDS011;8993;51.822;-2.268;2024-01-15T17:06:14;6.48;;;1.57;;
17741;SDS011;8993;51.822;-2.268;2024-01-15T17:11:18;7.68;;;2.16;;
17741;SDS011;8993;51.822;-2.268;2024-01-15T17:16:23;12.85;;;7.92;;
17741;SDS011;8993;51.822;-2.268;2024-01-15T17:21:27;9.78;;;3.20;;
17741;SDS011;8993;51.822;-2.268;2024-01-15T17:26:31;11.96;;;6.23;;
17741;SDS011;8993;51.822;-2.268;2024-01-15T17:31:35;14.48;;;5.74;;
17741;SDS011;8993;51.822;-2.268;2024-01-15T17:36:39;17.36;;;5.56;;
17741;SDS011;8993;51.822;-2.268;2024-01-15T17:41:43;16.86;;;4.34;;
17741;SDS011;8993;51.822;-2.268;2024-01-15T17:46:47;25.64;;;8.64;;
17741;SDS011;8993;51.822;-2.268;2024-01-15T17:51:51;21.06;;;7.17;;
17741;SDS011;8993;51.822;-2.268;2024-01-15T17:56:55;18.54;;;6.46;;
17741;SDS011;8993;51.822;-2.268;2024-01-15T18:01:59;23.40;;;13.13;;
17741;SDS011;8993;51.822;-2.268;2024-01-15T18:07:03;17.07;;;10.32;;
17741;SDS011;8993;51.822;-2.268;2024-01-15T18:12:07;14.18;;;3.69;;
17741;SDS011;8993;51.822;-2.268;2024-01-15T18:17:11;14.33;;;3.49;;
17741;SDS011;8993;51.822;-2.268;2024-01-15T18:22:16;11.45;;;3.22;;
17741;SDS011;8993;51.822;-2.268;2024-01-15T18:27:20;10.71;;;3.28;;
17741;SDS011;8993;51.822;-2.268;2024-01-15T18:32:24;16.71;;;4.09;;
17741;SDS011;8993;51.822;-2.268;2024-01-15T18:37:28;10.32;;;3.35;;
17741;SDS011;8993;51.822;-2.268;2024-01-15T18:42:32;14.79;;;4.06;;
17741;SDS011;8993;51.822;-2.268;2024-01-15T18:47:36;14.09;;;3.84;;
17741;SDS011;8993;51.822;-2.268;2024-01-15T18:52:40;14.84;;;3.97;;
17741;SDS011;8993;51.822;-2.268;2024-01-15T18:57:44;15.82;;;4.18;;
17741;SDS011;8993;51.822;-2.268;2024-01-15T19:02:48;12.74;;;4.24;;
17741;SDS011;8993;51.822;-2.268;2024-01-15T19:07:52;18.76;;;5.59;;
17741;SDS011;8993;51.822;-2.268;2024-01-15T19:12:56;19.72;;;5.09;;
17741;SDS011;8993;51.822;-2.268;2024-01-15T19:18:00;37.68;;;12.53;;
17741;SDS011;8993;51.822;-2.268;2024-01-15T19:23:05;69.41;;;23.43;;
17741;SDS011;8993;51.822;-2.268;2024-01-15T19:28:09;49.64;;;18.03;;
17741;SDS011;8993;51.822;-2.268;2024-01-15T19:33:13;32.70;;;12.13;;
17741;SDS011;8993;51.822;-2.268;2024-01-15T19:38:17;13.96;;;3.29;;
17741;SDS011;8993;51.822;-2.268;2024-01-15T19:43:21;10.72;;;2.89;;
17741;SDS011;8993;51.822;-2.268;2024-01-15T19:48:25;15.91;;;4.11;;
17741;SDS011;8993;51.822;-2.268;2024-01-15T19:53:30;16.08;;;4.74;;
17741;SDS011;8993;51.822;-2.268;2024-01-15T19:58:34;14.97;;;4.61;;
17741;SDS011;8993;51.822;-2.268;2024-01-15T20:03:39;18.96;;;5.26;;
17741;SDS011;8993;51.822;-2.268;2024-01-15T20:08:44;22.84;;;8.68;;
17741;SDS011;8993;51.822;-2.268;2024-01-15T20:13:48;19.66;;;7.81;;
17741;SDS011;8993;51.822;-2.268;2024-01-15T20:18:52;18.10;;;6.35;;
17741;SDS011;8993;51.822;-2.268;2024-01-15T20:23:57;16.01;;;4.84;;
17741;SDS011;8993;51.822;-2.268;2024-01-15T20:29:02;15.54;;;4.55;;
17741;SDS011;8993;51.822;-2.268;2024-01-15T20:34:06;15.07;;;4.02;;
17741;SDS011;8993;51.822;-2.268;2024-01-15T20:39:10;12.43;;;3.97;;
17741;SDS011;8993;51.822;-2.268;2024-01-15T20:44:14;11.60;;;3.66;;
17741;SDS011;8993;51.822;-2.268;2024-01-15T20:49:18;12.44;;;4.68;;
17741;SDS011;8993;51.822;-2.268;2024-01-15T20:54:22;17.46;;;7.78;;
17741;SDS011;8993;51.822;-2.268;2024-01-15T20:59:26;14.09;;;5.04;;
17741;SDS011;8993;51.822;-2.268;2024-01-15T21:04:30;15.98;;;5.36;;
17741;SDS011;8993;51.822;-2.268;2024-01-15T21:09:34;16.80;;;5.93;;
17741;SDS011;8993;51.822;-2.268;2024-01-15T21:14:38;18.41;;;5.94;;
17741;SDS011;8993;51.822;-2.268;2024-01-15T21:19:42;17.15;;;5.40;;
17741;SDS011;8993;51.822;-2.268;2024-01-15T21:24:45;15.32;;;4.85;;
17741;SDS011;8993;51.822;-2.268;2024-01-15T21:29:50;12.23;;;4.28;;
17741;SDS011;8993;51.822;-2.268;2024-01-15T21:34:54;11.49;;;3.94;;
17741;SDS011;8993;51.822;-2.268;2024-01-15T21:39:58;24.46;;;16.83;;
17741;SDS011;8993;51.822;-2.268;2024-01-15T21:45:02;13.21;;;6.07;;
17741;SDS011;8993;51.822;-2.268;2024-01-15T21:50:07;13.38;;;4.83;;
17741;SDS011;8993;51.822;-2.268;2024-01-15T21:55:10;13.25;;;5.08;;
17741;SDS011;8993;51.822;-2.268;2024-01-15T22:00:15;13.20;;;4.27;;
17741;SDS011;8993;51.822;-2.268;2024-01-15T22:05:19;11.90;;;4.54;;
17741;SDS011;8993;51.822;-2.268;2024-01-15T22:10:23;17.26;;;5.56;;
17741;SDS011;8993;51.822;-2.268;2024-01-15T22:15:27;15.96;;;5.19;;
17741;SDS011;8993;51.822;-2.268;2024-01-15T22:20:31;14.71;;;4.59;;
17741;SDS011;8993;51.822;-2.268;2024-01-15T22:25:35;16.30;;;4.12;;
17741;SDS011;8993;51.822;-2.268;2024-01-15T22:30:40;14.88;;;6.37;;
17741;SDS011;8993;51.822;-2.268;2024-01-15T22:35:43;15.16;;;3.65;;
17741;SDS011;8993;51.822;-2.268;2024-01-15T22:40:48;16.32;;;4.55;;
17741;SDS011;8993;51.822;-2.268;2024-01-15T22:45:52;18.72;;;5.12;;
17741;SDS011;8993;51.822;-2.268;2024-01-15T22:50:56;15.34;;;4.88;;
17741;SDS011;8993;51.822;-2.268;2024-01-15T22:56:01;21.39;;;6.10;;
17741;SDS011;8993;51.822;-2.268;2024-01-15T23:01:05;17.28;;;5.92;;
17741;SDS011;8993;51.822;-2.268;2024-01-15T23:06:15;15.14;;;4.55;;
17741;SDS011;8993;51.822;-2.268;2024-01-15T23:11:13;12.16;;;3.73;;
17741;SDS011;8993;51.822;-2.268;2024-01-15T23:16:17;13.45;;;4.41;;
17741;SDS011;8993;51.822;-2.268;2024-01-15T23:21:22;11.83;;;3.94;;
17741;SDS011;8993;51.822;-2.268;2024-01-15T23:26:26;12.36;;;4.10;;
17741;SDS011;8993;51.822;-2.268;2024-01-15T23:31:30;10.23;;;3.13;;
17741;SDS011;8993;51.822;-2.268;2024-01-15T23:36:34;10.51;;;2.81;;
17741;SDS011;8993;51.822;-2.268;2024-01-15T23:41:38;10.38;;;3.03;;
17741;SDS011;8993;51.822;-2.268;2024-01-15T23:46:42;9.39;;;2.70;;
17741;SDS011;8993;51.822;-2.268;2024-01-15T23:51:47;10.93;;;2.70;;
17741;SDS011;8993;51.822;-2.268;2024-01-15T23:56:51;8.20;;;2.56;;
